Culloden, West Virginia
Current Conditions -  °F | °C
As of 8:54 AM on Thursday 23 Oct 2014 (Local Time) from KCRW Reporting Station
Overcast Overcast  
Wind Chill: 47°   Ceiling: 3900
Heat Index: 47°   Visibility: 10mi
Dew Point: 42°   Wind: 3mph
Humidity: 83%   Direction: 290°WNW
Pressure: 30.21"   Gusts: NA
Location:  38.42°N, 82.07°W
Report Text: KCRW 231254Z 29003KT 10SM SCT014 OVC039 08/06 A3021 RMK AO2 SLP232 T00830056
Loading
Personal Weather Stations






























Interactive Weather Map
Tropical Storm Tracking
New forecast layout! Learn more

10-Day Weather Forecast

Advertisements
Track Severe Weather on mobile